sensor_id;sensor_type;location;lat;lon;timestamp;P1;durP1;ratioP1;P2;durP2;ratioP2
11522;SDS011;70090;43.208;27.904;2023-05-20T00:00:05;7.23;;;6.50;;
11522;SDS011;70090;43.208;27.904;2023-05-20T00:02:33;9.33;;;7.30;;
11522;SDS011;70090;43.208;27.904;2023-05-20T00:05:00;8.30;;;7.50;;
11522;SDS011;70090;43.208;27.904;2023-05-20T00:07:27;8.70;;;7.27;;
11522;SDS011;70090;43.208;27.904;2023-05-20T00:09:54;8.07;;;7.00;;
11522;SDS011;70090;43.208;27.904;2023-05-20T00:12:21;8.37;;;7.17;;
11522;SDS011;70090;43.208;27.904;2023-05-20T00:14:48;8.03;;;7.23;;
11522;SDS011;70090;43.208;27.904;2023-05-20T00:17:16;7.77;;;7.00;;
11522;SDS011;70090;43.208;27.904;2023-05-20T00:19:43;7.67;;;6.97;;
11522;SDS011;70090;43.208;27.904;2023-05-20T00:22:10;8.50;;;6.90;;
11522;SDS011;70090;43.208;27.904;2023-05-20T00:24:37;7.90;;;7.10;;
11522;SDS011;70090;43.208;27.904;2023-05-20T00:27:03;7.80;;;6.63;;
11522;SDS011;70090;43.208;27.904;2023-05-20T00:29:31;7.63;;;6.87;;
11522;SDS011;70090;43.208;27.904;2023-05-20T00:31:59;9.17;;;7.30;;
11522;SDS011;70090;43.208;27.904;2023-05-20T00:34:27;8.20;;;7.10;;
11522;SDS011;70090;43.208;27.904;2023-05-20T00:36:54;7.83;;;6.90;;
11522;SDS011;70090;43.208;27.904;2023-05-20T00:39:21;8.83;;;7.57;;
11522;SDS011;70090;43.208;27.904;2023-05-20T00:41:47;8.97;;;7.23;;
11522;SDS011;70090;43.208;27.904;2023-05-20T00:44:14;7.83;;;7.03;;
11522;SDS011;70090;43.208;27.904;2023-05-20T00:46:42;8.93;;;7.40;;
11522;SDS011;70090;43.208;27.904;2023-05-20T00:49:10;8.10;;;7.20;;
11522;SDS011;70090;43.208;27.904;2023-05-20T00:51:38;7.93;;;6.87;;
11522;SDS011;70090;43.208;27.904;2023-05-20T00:54:05;8.90;;;7.13;;
11522;SDS011;70090;43.208;27.904;2023-05-20T00:56:32;9.67;;;7.13;;
11522;SDS011;70090;43.208;27.904;2023-05-20T00:58:59;7.60;;;6.83;;
11522;SDS011;70090;43.208;27.904;2023-05-20T01:01:26;9.10;;;7.17;;
11522;SDS011;70090;43.208;27.904;2023-05-20T01:03:53;8.27;;;7.40;;
11522;SDS011;70090;43.208;27.904;2023-05-20T01:06:19;8.53;;;6.83;;
11522;SDS011;70090;43.208;27.904;2023-05-20T01:08:47;7.97;;;7.00;;
11522;SDS011;70090;43.208;27.904;2023-05-20T01:11:15;8.43;;;7.00;;
11522;SDS011;70090;43.208;27.904;2023-05-20T01:13:50;8.73;;;7.43;;
11522;SDS011;70090;43.208;27.904;2023-05-20T01:16:21;8.67;;;7.07;;
11522;SDS011;70090;43.208;27.904;2023-05-20T01:18:50;8.97;;;7.10;;
11522;SDS011;70090;43.208;27.904;2023-05-20T01:21:21;9.93;;;7.43;;
11522;SDS011;70090;43.208;27.904;2023-05-20T01:23:50;8.67;;;7.17;;
11522;SDS011;70090;43.208;27.904;2023-05-20T01:26:16;8.83;;;7.93;;
11522;SDS011;70090;43.208;27.904;2023-05-20T01:28:43;8.17;;;7.17;;
11522;SDS011;70090;43.208;27.904;2023-05-20T01:31:13;7.93;;;7.13;;
11522;SDS011;70090;43.208;27.904;2023-05-20T01:33:44;9.73;;;7.20;;
11522;SDS011;70090;43.208;27.904;2023-05-20T01:36:16;9.60;;;7.40;;
11522;SDS011;70090;43.208;27.904;2023-05-20T01:38:46;7.97;;;7.17;;
11522;SDS011;70090;43.208;27.904;2023-05-20T01:41:15;8.80;;;7.30;;
11522;SDS011;70090;43.208;27.904;2023-05-20T01:43:43;8.33;;;7.20;;
11522;SDS011;70090;43.208;27.904;2023-05-20T01:46:10;8.50;;;7.50;;
11522;SDS011;70090;43.208;27.904;2023-05-20T01:48:37;8.70;;;7.40;;
11522;SDS011;70090;43.208;27.904;2023-05-20T01:51:04;9.50;;;7.57;;
11522;SDS011;70090;43.208;27.904;2023-05-20T01:53:30;9.13;;;7.20;;
11522;SDS011;70090;43.208;27.904;2023-05-20T01:55:57;8.60;;;7.17;;
11522;SDS011;70090;43.208;27.904;2023-05-20T01:58:25;8.20;;;7.33;;
11522;SDS011;70090;43.208;27.904;2023-05-20T02:00:52;8.33;;;7.17;;
11522;SDS011;70090;43.208;27.904;2023-05-20T02:03:19;8.03;;;7.23;;
11522;SDS011;70090;43.208;27.904;2023-05-20T02:05:46;9.43;;;6.90;;
11522;SDS011;70090;43.208;27.904;2023-05-20T02:08:13;8.13;;;7.33;;
11522;SDS011;70090;43.208;27.904;2023-05-20T02:10:40;7.97;;;6.80;;
11522;SDS011;70090;43.208;27.904;2023-05-20T02:13:06;8.77;;;7.13;;
11522;SDS011;70090;43.208;27.904;2023-05-20T02:15:35;7.93;;;6.93;;
11522;SDS011;70090;43.208;27.904;2023-05-20T02:18:01;8.50;;;7.27;;
11522;SDS011;70090;43.208;27.904;2023-05-20T02:20:29;9.77;;;7.50;;
11522;SDS011;70090;43.208;27.904;2023-05-20T02:22:56;7.67;;;6.80;;
11522;SDS011;70090;43.208;27.904;2023-05-20T02:25:23;8.23;;;6.90;;
11522;SDS011;70090;43.208;27.904;2023-05-20T02:27:50;11.33;;;7.40;;
11522;SDS011;70090;43.208;27.904;2023-05-20T02:30:16;7.97;;;7.17;;
11522;SDS011;70090;43.208;27.904;2023-05-20T02:32:45;8.13;;;7.20;;
11522;SDS011;70090;43.208;27.904;2023-05-20T02:35:12;9.43;;;7.33;;
11522;SDS011;70090;43.208;27.904;2023-05-20T02:37:39;7.57;;;6.80;;
11522;SDS011;70090;43.208;27.904;2023-05-20T02:40:06;9.90;;;7.57;;
11522;SDS011;70090;43.208;27.904;2023-05-20T02:42:34;8.77;;;7.43;;
11522;SDS011;70090;43.208;27.904;2023-05-20T02:45:01;8.03;;;7.23;;
11522;SDS011;70090;43.208;27.904;2023-05-20T02:47:28;8.57;;;7.23;;
11522;SDS011;70090;43.208;27.904;2023-05-20T02:49:56;9.53;;;7.30;;
11522;SDS011;70090;43.208;27.904;2023-05-20T02:52:23;9.80;;;7.27;;
11522;SDS011;70090;43.208;27.904;2023-05-20T02:54:50;10.50;;;7.30;;
11522;SDS011;70090;43.208;27.904;2023-05-20T02:57:17;8.63;;;7.03;;
11522;SDS011;70090;43.208;27.904;2023-05-20T02:59:43;8.33;;;7.47;;
11522;SDS011;70090;43.208;27.904;2023-05-20T03:02:10;10.80;;;7.60;;
11522;SDS011;70090;43.208;27.904;2023-05-20T03:04:37;10.30;;;7.50;;
11522;SDS011;70090;43.208;27.904;2023-05-20T03:07:06;9.40;;;7.27;;
11522;SDS011;70090;43.208;27.904;2023-05-20T03:09:33;8.17;;;7.20;;
11522;SDS011;70090;43.208;27.904;2023-05-20T03:12:00;9.77;;;7.37;;
11522;SDS011;70090;43.208;27.904;2023-05-20T03:14:26;9.57;;;7.87;;
11522;SDS011;70090;43.208;27.904;2023-05-20T03:16:53;10.43;;;7.67;;
11522;SDS011;70090;43.208;27.904;2023-05-20T03:19:21;10.23;;;7.50;;
11522;SDS011;70090;43.208;27.904;2023-05-20T03:21:48;11.33;;;7.60;;
11522;SDS011;70090;43.208;27.904;2023-05-20T03:24:16;8.17;;;7.37;;
11522;SDS011;70090;43.208;27.904;2023-05-20T03:26:43;10.57;;;8.23;;
11522;SDS011;70090;43.208;27.904;2023-05-20T03:29:11;8.03;;;7.23;;
11522;SDS011;70090;43.208;27.904;2023-05-20T03:31:37;9.10;;;7.40;;
11522;SDS011;70090;43.208;27.904;2023-05-20T03:34:04;7.57;;;6.80;;
11522;SDS011;70090;43.208;27.904;2023-05-20T03:36:31;8.50;;;7.50;;
11522;SDS011;70090;43.208;27.904;2023-05-20T03:38:58;9.40;;;7.57;;
11522;SDS011;70090;43.208;27.904;2023-05-20T03:41:27;9.20;;;7.57;;
11522;SDS011;70090;43.208;27.904;2023-05-20T03:43:54;9.77;;;7.00;;
11522;SDS011;70090;43.208;27.904;2023-05-20T03:46:20;8.40;;;7.17;;
11522;SDS011;70090;43.208;27.904;2023-05-20T03:48:47;8.83;;;7.30;;
11522;SDS011;70090;43.208;27.904;2023-05-20T03:51:14;12.23;;;7.10;;
11522;SDS011;70090;43.208;27.904;2023-05-20T03:53:41;9.07;;;7.17;;
11522;SDS011;70090;43.208;27.904;2023-05-20T03:56:07;7.77;;;6.80;;
11522;SDS011;70090;43.208;27.904;2023-05-20T03:58:36;10.43;;;6.97;;
11522;SDS011;70090;43.208;27.904;2023-05-20T04:01:02;9.20;;;7.00;;
11522;SDS011;70090;43.208;27.904;2023-05-20T04:03:29;8.50;;;6.77;;
11522;SDS011;70090;43.208;27.904;2023-05-20T04:05:56;8.87;;;6.70;;
11522;SDS011;70090;43.208;27.904;2023-05-20T04:08:23;8.13;;;6.67;;
11522;SDS011;70090;43.208;27.904;2023-05-20T04:10:50;8.17;;;6.70;;
11522;SDS011;70090;43.208;27.904;2023-05-20T04:13:20;9.13;;;6.43;;
11522;SDS011;70090;43.208;27.904;2023-05-20T04:15:50;8.03;;;6.80;;
11522;SDS011;70090;43.208;27.904;2023-05-20T04:18:17;8.10;;;6.80;;
11522;SDS011;70090;43.208;27.904;2023-05-20T04:20:45;10.57;;;7.93;;
11522;SDS011;70090;43.208;27.904;2023-05-20T04:23:11;9.40;;;8.20;;
11522;SDS011;70090;43.208;27.904;2023-05-20T04:25:38;9.53;;;7.37;;
11522;SDS011;70090;43.208;27.904;2023-05-20T04:28:06;8.30;;;7.50;;
11522;SDS011;70090;43.208;27.904;2023-05-20T04:30:34;11.60;;;7.43;;
11522;SDS011;70090;43.208;27.904;2023-05-20T04:33:02;8.73;;;7.83;;
11522;SDS011;70090;43.208;27.904;2023-05-20T04:35:30;8.63;;;7.50;;
11522;SDS011;70090;43.208;27.904;2023-05-20T04:37:58;8.43;;;7.23;;
11522;SDS011;70090;43.208;27.904;2023-05-20T04:40:26;8.03;;;7.17;;
11522;SDS011;70090;43.208;27.904;2023-05-20T04:42:52;10.37;;;8.50;;
11522;SDS011;70090;43.208;27.904;2023-05-20T04:45:19;10.37;;;7.57;;
11522;SDS011;70090;43.208;27.904;2023-05-20T04:47:47;8.57;;;7.67;;
11522;SDS011;70090;43.208;27.904;2023-05-20T04:50:16;8.00;;;7.20;;
11522;SDS011;70090;43.208;27.904;2023-05-20T04:52:42;8.37;;;7.57;;
11522;SDS011;70090;43.208;27.904;2023-05-20T04:55:10;10.17;;;8.10;;
11522;SDS011;70090;43.208;27.904;2023-05-20T04:57:37;9.20;;;7.90;;
11522;SDS011;70090;43.208;27.904;2023-05-20T05:00:06;8.33;;;7.53;;
11522;SDS011;70090;43.208;27.904;2023-05-20T05:02:34;10.03;;;8.27;;
11522;SDS011;70090;43.208;27.904;2023-05-20T05:05:01;11.07;;;8.90;;
11522;SDS011;70090;43.208;27.904;2023-05-20T05:07:29;11.77;;;8.70;;
11522;SDS011;70090;43.208;27.904;2023-05-20T05:09:56;9.50;;;7.67;;
11522;SDS011;70090;43.208;27.904;2023-05-20T05:12:23;10.53;;;8.27;;
11522;SDS011;70090;43.208;27.904;2023-05-20T05:14:50;9.90;;;8.63;;
11522;SDS011;70090;43.208;27.904;2023-05-20T05:17:16;9.17;;;8.27;;
11522;SDS011;70090;43.208;27.904;2023-05-20T05:19:43;9.37;;;8.37;;
11522;SDS011;70090;43.208;27.904;2023-05-20T05:22:10;8.77;;;7.53;;
11522;SDS011;70090;43.208;27.904;2023-05-20T05:24:38;11.37;;;8.30;;
11522;SDS011;70090;43.208;27.904;2023-05-20T05:27:05;10.20;;;8.10;;
11522;SDS011;70090;43.208;27.904;2023-05-20T05:29:32;11.47;;;7.93;;
11522;SDS011;70090;43.208;27.904;2023-05-20T05:31:59;11.97;;;8.70;;
11522;SDS011;70090;43.208;27.904;2023-05-20T05:34:26;10.13;;;8.83;;
11522;SDS011;70090;43.208;27.904;2023-05-20T05:36:53;9.27;;;7.83;;
11522;SDS011;70090;43.208;27.904;2023-05-20T05:39:19;10.47;;;8.33;;
11522;SDS011;70090;43.208;27.904;2023-05-20T05:41:48;9.53;;;8.50;;
11522;SDS011;70090;43.208;27.904;2023-05-20T05:44:15;10.17;;;8.03;;
11522;SDS011;70090;43.208;27.904;2023-05-20T05:46:41;10.00;;;8.57;;
11522;SDS011;70090;43.208;27.904;2023-05-20T05:49:08;10.57;;;8.30;;
11522;SDS011;70090;43.208;27.904;2023-05-20T05:51:35;9.40;;;8.00;;
11522;SDS011;70090;43.208;27.904;2023-05-20T05:54:02;11.33;;;8.47;;
11522;SDS011;70090;43.208;27.904;2023-05-20T05:56:29;9.83;;;7.83;;
11522;SDS011;70090;43.208;27.904;2023-05-20T05:58:57;11.10;;;8.30;;
11522;SDS011;70090;43.208;27.904;2023-05-20T06:01:24;9.37;;;8.40;;
11522;SDS011;70090;43.208;27.904;2023-05-20T06:03:51;8.70;;;7.27;;
11522;SDS011;70090;43.208;27.904;2023-05-20T06:06:18;10.27;;;7.93;;
11522;SDS011;70090;43.208;27.904;2023-05-20T06:08:44;10.27;;;7.67;;
11522;SDS011;70090;43.208;27.904;2023-05-20T06:11:11;10.30;;;7.87;;
11522;SDS011;70090;43.208;27.904;2023-05-20T06:13:38;11.53;;;7.47;;
11522;SDS011;70090;43.208;27.904;2023-05-20T06:16:06;10.50;;;7.43;;
11522;SDS011;70090;43.208;27.904;2023-05-20T06:18:33;9.53;;;7.07;;
11522;SDS011;70090;43.208;27.904;2023-05-20T06:21:00;9.23;;;7.50;;
11522;SDS011;70090;43.208;27.904;2023-05-20T06:23:26;7.93;;;6.97;;
11522;SDS011;70090;43.208;27.904;2023-05-20T06:25:56;11.00;;;8.00;;
11522;SDS011;70090;43.208;27.904;2023-05-20T06:28:24;8.83;;;6.97;;
11522;SDS011;70090;43.208;27.904;2023-05-20T06:30:50;8.70;;;6.93;;
11522;SDS011;70090;43.208;27.904;2023-05-20T06:33:20;8.30;;;7.00;;
11522;SDS011;70090;43.208;27.904;2023-05-20T06:35:50;7.87;;;6.90;;
11522;SDS011;70090;43.208;27.904;2023-05-20T06:38:16;10.30;;;8.10;;
11522;SDS011;70090;43.208;27.904;2023-05-20T06:40:43;10.27;;;7.10;;
11522;SDS011;70090;43.208;27.904;2023-05-20T06:43:10;10.80;;;6.77;;
11522;SDS011;70090;43.208;27.904;2023-05-20T06:45:37;11.00;;;7.23;;
11522;SDS011;70090;43.208;27.904;2023-05-20T06:48:04;8.47;;;6.00;;
11522;SDS011;70090;43.208;27.904;2023-05-20T06:50:32;7.87;;;6.70;;
11522;SDS011;70090;43.208;27.904;2023-05-20T06:52:59;9.57;;;6.97;;
11522;SDS011;70090;43.208;27.904;2023-05-20T06:55:26;9.03;;;7.17;;
11522;SDS011;70090;43.208;27.904;2023-05-20T06:57:53;13.83;;;8.63;;
11522;SDS011;70090;43.208;27.904;2023-05-20T07:00:20;8.50;;;6.63;;
11522;SDS011;70090;43.208;27.904;2023-05-20T07:02:47;10.83;;;7.40;;
11522;SDS011;70090;43.208;27.904;2023-05-20T07:05:14;10.37;;;7.33;;
11522;SDS011;70090;43.208;27.904;2023-05-20T07:07:42;7.93;;;6.67;;
11522;SDS011;70090;43.208;27.904;2023-05-20T07:10:09;8.40;;;7.50;;
11522;SDS011;70090;43.208;27.904;2023-05-20T07:12:35;10.90;;;7.43;;
11522;SDS011;70090;43.208;27.904;2023-05-20T07:15:02;14.53;;;8.40;;
11522;SDS011;70090;43.208;27.904;2023-05-20T07:17:30;9.93;;;7.77;;
11522;SDS011;70090;43.208;27.904;2023-05-20T07:19:56;9.77;;;7.70;;
11522;SDS011;70090;43.208;27.904;2023-05-20T07:22:23;11.57;;;7.80;;
11522;SDS011;70090;43.208;27.904;2023-05-20T07:24:51;14.23;;;7.00;;
11522;SDS011;70090;43.208;27.904;2023-05-20T07:27:18;10.43;;;7.23;;
11522;SDS011;70090;43.208;27.904;2023-05-20T07:29:45;11.23;;;7.17;;
11522;SDS011;70090;43.208;27.904;2023-05-20T07:32:12;8.13;;;7.00;;
11522;SDS011;70090;43.208;27.904;2023-05-20T07:34:39;11.37;;;8.50;;
11522;SDS011;70090;43.208;27.904;2023-05-20T07:37:05;12.97;;;10.07;;
11522;SDS011;70090;43.208;27.904;2023-05-20T07:39:34;8.50;;;7.30;;
11522;SDS011;70090;43.208;27.904;2023-05-20T07:42:02;10.13;;;7.33;;
11522;SDS011;70090;43.208;27.904;2023-05-20T07:44:29;7.80;;;7.00;;
11522;SDS011;70090;43.208;27.904;2023-05-20T07:46:56;11.10;;;7.57;;
11522;SDS011;70090;43.208;27.904;2023-05-20T07:49:22;9.23;;;8.23;;
11522;SDS011;70090;43.208;27.904;2023-05-20T07:51:49;10.97;;;7.83;;
11522;SDS011;70090;43.208;27.904;2023-05-20T07:54:16;9.30;;;7.57;;
11522;SDS011;70090;43.208;27.904;2023-05-20T07:56:43;12.73;;;8.40;;
11522;SDS011;70090;43.208;27.904;2023-05-20T07:59:11;10.03;;;8.20;;
11522;SDS011;70090;43.208;27.904;2023-05-20T08:01:39;10.27;;;8.80;;
11522;SDS011;70090;43.208;27.904;2023-05-20T08:04:07;10.27;;;8.30;;
11522;SDS011;70090;43.208;27.904;2023-05-20T08:06:34;11.10;;;8.80;;
11522;SDS011;70090;43.208;27.904;2023-05-20T08:09:01;13.40;;;9.27;;
11522;SDS011;70090;43.208;27.904;2023-05-20T08:11:28;12.10;;;10.10;;
11522;SDS011;70090;43.208;27.904;2023-05-20T08:13:55;14.70;;;11.77;;
11522;SDS011;70090;43.208;27.904;2023-05-20T08:16:23;19.63;;;13.83;;
11522;SDS011;70090;43.208;27.904;2023-05-20T08:18:50;13.43;;;10.07;;
11522;SDS011;70090;43.208;27.904;2023-05-20T08:21:17;17.53;;;12.30;;
11522;SDS011;70090;43.208;27.904;2023-05-20T08:23:43;11.40;;;9.70;;
11522;SDS011;70090;43.208;27.904;2023-05-20T08:26:10;11.80;;;9.63;;
11522;SDS011;70090;43.208;27.904;2023-05-20T08:28:37;18.00;;;11.97;;
11522;SDS011;70090;43.208;27.904;2023-05-20T08:31:04;12.13;;;9.90;;
11522;SDS011;70090;43.208;27.904;2023-05-20T08:33:32;12.57;;;10.03;;
11522;SDS011;70090;43.208;27.904;2023-05-20T08:35:59;12.60;;;9.10;;
11522;SDS011;70090;43.208;27.904;2023-05-20T08:38:26;18.00;;;11.80;;
11522;SDS011;70090;43.208;27.904;2023-05-20T08:40:54;13.27;;;11.47;;
11522;SDS011;70090;43.208;27.904;2023-05-20T08:43:22;12.53;;;11.23;;
11522;SDS011;70090;43.208;27.904;2023-05-20T08:45:49;12.23;;;11.07;;
11522;SDS011;70090;43.208;27.904;2023-05-20T08:48:17;14.43;;;11.83;;
11522;SDS011;70090;43.208;27.904;2023-05-20T08:50:46;14.30;;;12.80;;
11522;SDS011;70090;43.208;27.904;2023-05-20T08:53:16;14.57;;;12.13;;
11522;SDS011;70090;43.208;27.904;2023-05-20T08:55:45;16.33;;;12.17;;
11522;SDS011;70090;43.208;27.904;2023-05-20T08:58:17;12.57;;;11.27;;
11522;SDS011;70090;43.208;27.904;2023-05-20T09:00:44;12.80;;;11.13;;
11522;SDS011;70090;43.208;27.904;2023-05-20T09:03:11;15.77;;;12.50;;
11522;SDS011;70090;43.208;27.904;2023-05-20T09:05:38;26.33;;;12.43;;
11522;SDS011;70090;43.208;27.904;2023-05-20T09:08:06;16.13;;;11.37;;
11522;SDS011;70090;43.208;27.904;2023-05-20T09:10:34;30.93;;;11.67;;
11522;SDS011;70090;43.208;27.904;2023-05-20T09:13:02;17.93;;;11.00;;
11522;SDS011;70090;43.208;27.904;2023-05-20T09:15:29;15.33;;;11.47;;
11522;SDS011;70090;43.208;27.904;2023-05-20T09:17:58;16.00;;;11.70;;
11522;SDS011;70090;43.208;27.904;2023-05-20T09:20:26;14.90;;;12.63;;
11522;SDS011;70090;43.208;27.904;2023-05-20T09:22:57;16.47;;;12.53;;
11522;SDS011;70090;43.208;27.904;2023-05-20T09:25:26;22.07;;;16.50;;
11522;SDS011;70090;43.208;27.904;2023-05-20T09:27:53;21.40;;;14.50;;
11522;SDS011;70090;43.208;27.904;2023-05-20T09:30:20;14.13;;;11.83;;
11522;SDS011;70090;43.208;27.904;2023-05-20T09:32:51;12.77;;;11.50;;
11522;SDS011;70090;43.208;27.904;2023-05-20T09:35:20;12.60;;;11.30;;
11522;SDS011;70090;43.208;27.904;2023-05-20T09:37:47;17.43;;;12.57;;
11522;SDS011;70090;43.208;27.904;2023-05-20T09:40:17;12.67;;;11.07;;
11522;SDS011;70090;43.208;27.904;2023-05-20T09:42:51;12.27;;;11.07;;
11522;SDS011;70090;43.208;27.904;2023-05-20T09:45:19;13.17;;;11.73;;
11522;SDS011;70090;43.208;27.904;2023-05-20T09:47:48;14.57;;;11.47;;
11522;SDS011;70090;43.208;27.904;2023-05-20T09:50:16;13.83;;;11.70;;
11522;SDS011;70090;43.208;27.904;2023-05-20T09:52:45;17.93;;;12.43;;
11522;SDS011;70090;43.208;27.904;2023-05-20T09:55:13;14.30;;;12.07;;
11522;SDS011;70090;43.208;27.904;2023-05-20T09:57:40;11.83;;;10.73;;
11522;SDS011;70090;43.208;27.904;2023-05-20T10:00:09;13.77;;;11.50;;
11522;SDS011;70090;43.208;27.904;2023-05-20T10:02:39;13.97;;;11.80;;
11522;SDS011;70090;43.208;27.904;2023-05-20T10:05:10;13.93;;;11.60;;
11522;SDS011;70090;43.208;27.904;2023-05-20T10:07:52;13.33;;;11.93;;
11522;SDS011;70090;43.208;27.904;2023-05-20T10:10:47;13.50;;;11.80;;
11522;SDS011;70090;43.208;27.904;2023-05-20T10:13:24;15.23;;;11.83;;
11522;SDS011;70090;43.208;27.904;2023-05-20T10:16:05;12.60;;;11.00;;
11522;SDS011;70090;43.208;27.904;2023-05-20T10:18:48;17.57;;;12.17;;
11522;SDS011;70090;43.208;27.904;2023-05-20T10:21:22;13.30;;;11.90;;
11522;SDS011;70090;43.208;27.904;2023-05-20T10:23:50;13.80;;;12.43;;
11522;SDS011;70090;43.208;27.904;2023-05-20T10:26:17;14.80;;;11.13;;
11522;SDS011;70090;43.208;27.904;2023-05-20T10:28:45;12.70;;;10.93;;
11522;SDS011;70090;43.208;27.904;2023-05-20T10:31:17;15.13;;;11.23;;
11522;SDS011;70090;43.208;27.904;2023-05-20T10:33:47;16.67;;;11.87;;
11522;SDS011;70090;43.208;27.904;2023-05-20T10:36:24;13.20;;;11.33;;
11522;SDS011;70090;43.208;27.904;2023-05-20T10:38:52;12.70;;;11.13;;
11522;SDS011;70090;43.208;27.904;2023-05-20T10:41:20;16.87;;;11.10;;
11522;SDS011;70090;43.208;27.904;2023-05-20T10:43:58;24.90;;;11.80;;
11522;SDS011;70090;43.208;27.904;2023-05-20T10:46:28;13.97;;;10.30;;
11522;SDS011;70090;43.208;27.904;2023-05-20T10:48:55;15.87;;;9.50;;
11522;SDS011;70090;43.208;27.904;2023-05-20T10:51:23;12.87;;;10.50;;
11522;SDS011;70090;43.208;27.904;2023-05-20T10:53:53;15.70;;;9.47;;
11522;SDS011;70090;43.208;27.904;2023-05-20T10:56:22;10.97;;;9.20;;
11522;SDS011;70090;43.208;27.904;2023-05-20T10:58:50;12.90;;;7.27;;
11522;SDS011;70090;43.208;27.904;2023-05-20T11:01:25;10.00;;;6.80;;
11522;SDS011;70090;43.208;27.904;2023-05-20T11:03:54;10.10;;;5.70;;
11522;SDS011;70090;43.208;27.904;2023-05-20T11:06:25;9.53;;;6.07;;
11522;SDS011;70090;43.208;27.904;2023-05-20T11:08:53;11.57;;;6.07;;
11522;SDS011;70090;43.208;27.904;2023-05-20T11:11:21;10.03;;;5.80;;
11522;SDS011;70090;43.208;27.904;2023-05-20T11:13:49;11.57;;;5.67;;
11522;SDS011;70090;43.208;27.904;2023-05-20T11:16:17;10.90;;;6.40;;
11522;SDS011;70090;43.208;27.904;2023-05-20T11:18:46;13.27;;;6.30;;
11522;SDS011;70090;43.208;27.904;2023-05-20T11:21:15;12.70;;;6.20;;
11522;SDS011;70090;43.208;27.904;2023-05-20T11:23:43;13.37;;;6.10;;
11522;SDS011;70090;43.208;27.904;2023-05-20T11:26:10;9.50;;;5.97;;
11522;SDS011;70090;43.208;27.904;2023-05-20T11:28:37;9.20;;;5.93;;
11522;SDS011;70090;43.208;27.904;2023-05-20T11:31:04;9.10;;;5.40;;
11522;SDS011;70090;43.208;27.904;2023-05-20T11:33:31;9.80;;;6.10;;
11522;SDS011;70090;43.208;27.904;2023-05-20T11:35:58;9.87;;;6.60;;
11522;SDS011;70090;43.208;27.904;2023-05-20T11:38:27;9.43;;;5.70;;
11522;SDS011;70090;43.208;27.904;2023-05-20T11:40:55;9.73;;;5.70;;
11522;SDS011;70090;43.208;27.904;2023-05-20T11:43:23;8.47;;;6.37;;
11522;SDS011;70090;43.208;27.904;2023-05-20T11:45:51;9.93;;;6.20;;
11522;SDS011;70090;43.208;27.904;2023-05-20T11:48:19;11.63;;;6.00;;
11522;SDS011;70090;43.208;27.904;2023-05-20T11:50:46;10.30;;;6.40;;
11522;SDS011;70090;43.208;27.904;2023-05-20T11:53:14;11.53;;;5.87;;
11522;SDS011;70090;43.208;27.904;2023-05-20T11:55:47;10.13;;;5.70;;
11522;SDS011;70090;43.208;27.904;2023-05-20T11:58:15;7.37;;;6.10;;
11522;SDS011;70090;43.208;27.904;2023-05-20T12:00:43;8.90;;;5.77;;
11522;SDS011;70090;43.208;27.904;2023-05-20T12:03:10;11.17;;;6.80;;
11522;SDS011;70090;43.208;27.904;2023-05-20T12:05:37;8.90;;;6.60;;
11522;SDS011;70090;43.208;27.904;2023-05-20T12:08:05;9.87;;;6.07;;
11522;SDS011;70090;43.208;27.904;2023-05-20T12:10:32;10.03;;;6.80;;
11522;SDS011;70090;43.208;27.904;2023-05-20T12:13:00;12.17;;;6.57;;
11522;SDS011;70090;43.208;27.904;2023-05-20T12:15:27;9.73;;;7.07;;
11522;SDS011;70090;43.208;27.904;2023-05-20T12:17:54;10.63;;;7.07;;
11522;SDS011;70090;43.208;27.904;2023-05-20T12:20:21;11.03;;;6.67;;
11522;SDS011;70090;43.208;27.904;2023-05-20T12:22:49;9.10;;;6.67;;
11522;SDS011;70090;43.208;27.904;2023-05-20T12:25:16;11.87;;;6.83;;
11522;SDS011;70090;43.208;27.904;2023-05-20T12:27:44;12.03;;;7.20;;
11522;SDS011;70090;43.208;27.904;2023-05-20T12:30:14;9.23;;;6.60;;
11522;SDS011;70090;43.208;27.904;2023-05-20T12:32:42;13.00;;;7.00;;
11522;SDS011;70090;43.208;27.904;2023-05-20T12:35:09;12.57;;;7.10;;
11522;SDS011;70090;43.208;27.904;2023-05-20T12:37:37;8.40;;;7.30;;
11522;SDS011;70090;43.208;27.904;2023-05-20T12:40:06;9.00;;;6.67;;
11522;SDS011;70090;43.208;27.904;2023-05-20T12:42:34;11.10;;;6.90;;
11522;SDS011;70090;43.208;27.904;2023-05-20T12:45:01;13.57;;;7.43;;
11522;SDS011;70090;43.208;27.904;2023-05-20T12:47:29;14.90;;;7.67;;
11522;SDS011;70090;43.208;27.904;2023-05-20T12:49:57;15.63;;;7.40;;
11522;SDS011;70090;43.208;27.904;2023-05-20T12:52:24;11.77;;;6.90;;
11522;SDS011;70090;43.208;27.904;2023-05-20T12:54:52;14.03;;;7.30;;
11522;SDS011;70090;43.208;27.904;2023-05-20T12:57:19;11.80;;;7.10;;
11522;SDS011;70090;43.208;27.904;2023-05-20T12:59:46;12.93;;;7.27;;
11522;SDS011;70090;43.208;27.904;2023-05-20T13:02:13;13.50;;;6.87;;
11522;SDS011;70090;43.208;27.904;2023-05-20T13:04:41;12.70;;;7.10;;
11522;SDS011;70090;43.208;27.904;2023-05-20T13:07:08;12.53;;;7.10;;
11522;SDS011;70090;43.208;27.904;2023-05-20T13:09:35;11.50;;;7.30;;
11522;SDS011;70090;43.208;27.904;2023-05-20T13:12:02;12.43;;;7.33;;
11522;SDS011;70090;43.208;27.904;2023-05-20T13:14:30;13.73;;;6.60;;
11522;SDS011;70090;43.208;27.904;2023-05-20T13:16:57;12.87;;;7.10;;
11522;SDS011;70090;43.208;27.904;2023-05-20T13:19:23;11.20;;;7.23;;
11522;SDS011;70090;43.208;27.904;2023-05-20T13:21:52;9.53;;;6.73;;
11522;SDS011;70090;43.208;27.904;2023-05-20T13:24:19;13.03;;;7.50;;
11522;SDS011;70090;43.208;27.904;2023-05-20T13:26:46;13.27;;;7.40;;
11522;SDS011;70090;43.208;27.904;2023-05-20T13:29:13;11.93;;;7.30;;
11522;SDS011;70090;43.208;27.904;2023-05-20T13:31:40;9.13;;;6.27;;
11522;SDS011;70090;43.208;27.904;2023-05-20T13:34:07;12.27;;;7.10;;
11522;SDS011;70090;43.208;27.904;2023-05-20T13:36:34;11.40;;;7.20;;
11522;SDS011;70090;43.208;27.904;2023-05-20T13:39:02;13.33;;;7.10;;
11522;SDS011;70090;43.208;27.904;2023-05-20T13:41:29;15.87;;;7.83;;
11522;SDS011;70090;43.208;27.904;2023-05-20T13:43:56;17.43;;;8.13;;
11522;SDS011;70090;43.208;27.904;2023-05-20T13:46:23;16.37;;;8.20;;
11522;SDS011;70090;43.208;27.904;2023-05-20T13:48:50;13.60;;;8.00;;
11522;SDS011;70090;43.208;27.904;2023-05-20T13:51:17;16.43;;;8.70;;
11522;SDS011;70090;43.208;27.904;2023-05-20T13:53:43;14.23;;;9.07;;
11522;SDS011;70090;43.208;27.904;2023-05-20T13:56:12;13.33;;;9.50;;
11522;SDS011;70090;43.208;27.904;2023-05-20T13:58:38;12.87;;;8.87;;
11522;SDS011;70090;43.208;27.904;2023-05-20T14:01:05;13.27;;;8.17;;
11522;SDS011;70090;43.208;27.904;2023-05-20T14:03:32;13.33;;;7.83;;
11522;SDS011;70090;43.208;27.904;2023-05-20T14:06:01;10.30;;;7.60;;
11522;SDS011;70090;43.208;27.904;2023-05-20T14:08:28;9.47;;;6.53;;
11522;SDS011;70090;43.208;27.904;2023-05-20T14:10:55;12.97;;;6.90;;
11522;SDS011;70090;43.208;27.904;2023-05-20T14:13:23;15.03;;;6.97;;
11522;SDS011;70090;43.208;27.904;2023-05-20T14:15:50;12.57;;;6.53;;
11522;SDS011;70090;43.208;27.904;2023-05-20T14:18:18;10.67;;;6.30;;
11522;SDS011;70090;43.208;27.904;2023-05-20T14:20:46;14.40;;;6.40;;
11522;SDS011;70090;43.208;27.904;2023-05-20T14:23:13;10.43;;;7.13;;
11522;SDS011;70090;43.208;27.904;2023-05-20T14:25:40;10.57;;;6.77;;
11522;SDS011;70090;43.208;27.904;2023-05-20T14:28:06;13.90;;;6.13;;